createdAt,value
2022-12-17T00:02:23.755Z,98568.22
2022-12-17T00:05:09.413Z,98536.97
2022-12-17T00:07:55.526Z,98534.50
2022-12-17T00:10:41.865Z,98524.06
2022-12-17T00:13:38.172Z,98499.81
2022-12-17T00:16:24.076Z,98453.78
2022-12-17T00:19:09.676Z,98495.44
2022-12-17T00:21:56.393Z,98556.59
2022-12-17T00:24:42.357Z,98566.09
2022-12-17T00:27:27.766Z,98535.66
2022-12-17T00:30:13.112Z,98544.25
2022-12-17T00:32:58.705Z,98543.41
2022-12-17T00:35:44.305Z,98539.84
2022-12-17T00:38:38.865Z,98540.72
2022-12-17T00:41:24.785Z,98558.00
2022-12-17T00:44:10.127Z,98545.91
2022-12-17T00:46:55.890Z,98549.22
2022-12-17T00:49:41.476Z,98537.97
2022-12-17T00:52:27.286Z,98531.75
2022-12-17T00:55:12.428Z,98531.75
2022-12-17T00:57:58.065Z,98517.00
2022-12-17T01:00:43.404Z,98505.81
2022-12-17T01:03:31.315Z,98491.00
2022-12-17T01:06:21.283Z,98481.44
2022-12-17T01:09:06.926Z,98498.75
2022-12-17T01:11:52.386Z,98476.34
2022-12-17T01:14:42.707Z,98474.53
2022-12-17T01:17:28.258Z,98476.34
2022-12-17T01:20:13.726Z,98474.50
2022-12-17T01:22:59.066Z,98449.50
2022-12-17T01:25:44.943Z,98419.97
2022-12-17T01:28:30.498Z,98428.75
2022-12-17T01:31:19.581Z,98453.22
2022-12-17T01:34:05.836Z,98429.63
2022-12-17T01:36:51.306Z,98397.53
2022-12-17T01:39:36.596Z,98381.03
2022-12-17T01:42:21.861Z,98401.88
2022-12-17T01:45:15.016Z,98401.97
2022-12-17T01:48:08.966Z,98422.72
2022-12-17T01:50:58.603Z,98448.69
2022-12-17T01:53:49.386Z,98503.38
2022-12-17T01:56:35.786Z,98569.47
2022-12-17T01:59:23.827Z,98703.09
2022-12-17T02:02:09.508Z,98737.94
2022-12-17T02:04:55.345Z,98699.78
2022-12-17T02:07:57.086Z,98683.34
2022-12-17T02:10:48.627Z,98710.25
2022-12-17T02:13:49.246Z,98723.28
2022-12-17T02:16:39.300Z,98720.69
2022-12-17T02:19:46.594Z,98732.00
2022-12-17T02:23:17.959Z,98729.47
2022-12-17T02:26:18.747Z,98733.91
2022-12-17T02:29:07.744Z,98722.69
2022-12-17T02:31:55.860Z,98713.09
2022-12-17T02:34:41.025Z,98715.72
2022-12-17T02:37:26.797Z,98668.00
2022-12-17T02:40:12.241Z,98655.84
2022-12-17T02:42:57.721Z,98678.38
2022-12-17T02:45:43.494Z,98673.16
2022-12-17T02:48:31.306Z,98668.84
2022-12-17T02:51:18.087Z,98675.78
2022-12-17T02:54:04.812Z,98681.81
2022-12-17T02:56:50.149Z,98641.03
2022-12-17T02:59:35.594Z,98610.75
2022-12-17T03:02:21.064Z,98606.44
2022-12-17T03:05:21.425Z,98593.53
2022-12-17T03:08:11.570Z,98579.63
2022-12-17T03:10:57.147Z,98615.19
2022-12-17T03:13:48.383Z,98625.56
2022-12-17T03:16:37.881Z,98631.66
2022-12-17T03:19:23.985Z,98653.38
2022-12-17T03:22:09.277Z,98619.59
2022-12-17T03:24:54.751Z,98619.53
2022-12-17T03:27:42.306Z,98626.47
2022-12-17T03:30:30.159Z,98658.53
2022-12-17T03:33:18.828Z,98703.63
2022-12-17T03:36:04.303Z,98779.06
2022-12-17T03:38:49.836Z,98791.19
2022-12-17T03:41:35.156Z,98842.38
2022-12-17T03:44:20.326Z,98800.72
2022-12-17T03:47:05.664Z,98734.03
2022-12-17T03:49:51.315Z,98700.28
2022-12-17T03:52:36.919Z,98629.97
2022-12-17T03:55:22.765Z,98584.03
2022-12-17T03:58:08.286Z,98588.34
2022-12-17T04:00:53.497Z,98634.38
2022-12-17T04:03:39.368Z,98611.81
2022-12-17T04:06:25.296Z,98590.09
2022-12-17T04:09:10.726Z,98563.19
2022-12-17T04:11:56.426Z,98602.16
2022-12-17T04:14:41.745Z,98592.66
2022-12-17T04:17:27.365Z,98582.13
2022-12-17T04:20:13.106Z,98583.00
2022-12-17T04:22:58.366Z,98584.81
2022-12-17T04:25:43.905Z,98594.28
2022-12-17T04:28:29.392Z,98583.09
2022-12-17T04:31:14.640Z,98597.88
2022-12-17T04:34:00.115Z,98611.75
2022-12-17T04:36:45.646Z,98613.53
2022-12-17T04:39:31.196Z,98601.47
2022-12-17T04:57:16.124Z,98651.59
2022-12-17T05:00:01.698Z,98655.16
2022-12-17T05:02:47.407Z,98655.16
2022-12-17T05:05:33.249Z,98668.19
2022-12-17T05:08:18.905Z,98666.47
2022-12-17T05:11:04.496Z,98663.09
2022-12-17T05:13:49.767Z,98649.19
2022-12-17T05:16:35.309Z,98655.25
2022-12-17T05:19:20.842Z,98650.88
2022-12-17T05:22:06.265Z,98653.47
2022-12-17T05:24:51.808Z,98669.94
2022-12-17T05:27:37.252Z,98679.50
2022-12-17T05:30:23.393Z,98678.63
2022-12-17T05:33:20.232Z,98673.44
2022-12-17T05:36:05.854Z,98681.22
2022-12-17T05:38:51.236Z,98690.75
2022-12-17T05:41:36.862Z,98705.47
2022-12-17T05:44:22.364Z,98721.94
2022-12-17T05:47:08.219Z,98725.44
2022-12-17T05:49:53.832Z,98722.81
2022-12-17T05:52:42.272Z,98732.38
2022-12-17T05:55:27.683Z,98755.72
2022-12-17T05:58:28.286Z,98766.13
2022-12-17T06:01:17.858Z,98770.50
2022-12-17T06:04:03.836Z,98777.44
2022-12-17T06:06:49.352Z,98766.16
2022-12-17T06:09:35.021Z,98762.66
2022-12-17T06:12:20.496Z,98763.53
2022-12-17T06:15:05.866Z,98779.13
2022-12-17T06:17:51.263Z,98812.94
2022-12-17T06:20:36.769Z,98815.53
2022-12-17T06:23:27.792Z,98824.22
2022-12-17T06:26:17.296Z,98832.00
2022-12-17T06:29:02.779Z,98833.72
2022-12-17T06:31:48.378Z,98865.72
2022-12-17T06:34:33.902Z,98887.47
2022-12-17T06:37:19.619Z,98879.59
2022-12-17T06:40:05.172Z,98901.22
2022-12-17T06:42:50.837Z,98924.59
2022-12-17T06:45:36.312Z,98921.88
2022-12-17T06:48:27.814Z,98949.56
2022-12-17T06:51:14.154Z,98951.25
2022-12-17T06:54:00.787Z,98958.13
2022-12-17T06:56:46.783Z,98950.34
2022-12-17T06:59:32.353Z,98972.84
2022-12-17T07:02:17.945Z,98985.69
2022-12-17T07:05:03.492Z,98993.88
2022-12-17T07:07:49.162Z,98999.09
2022-12-17T07:10:34.635Z,99015.28
2022-12-17T07:13:24.432Z,99013.47
2022-12-17T07:16:10.890Z,99012.56
2022-12-17T07:18:57.451Z,99048.94
2022-12-17T07:21:43.599Z,99048.38
2022-12-17T07:24:29.327Z,99067.66
2022-12-17T07:27:14.806Z,99081.28
2022-12-17T07:30:00.394Z,99091.66
2022-12-17T07:32:45.967Z,99124.19
2022-12-17T07:35:31.183Z,99137.25
2022-12-17T07:38:21.877Z,99136.41
2022-12-17T07:41:07.734Z,99143.03
2022-12-17T07:43:53.668Z,99139.59
2022-12-17T07:46:39.511Z,99135.25
2022-12-17T07:49:26.051Z,99141.19
2022-12-17T07:52:11.604Z,99137.88
2022-12-17T07:54:57.386Z,99130.13
2022-12-17T07:57:43.423Z,99145.59
2022-12-17T08:00:29.342Z,99149.06
2022-12-17T08:03:19.325Z,99114.56
2022-12-17T08:06:04.955Z,99140.66
2022-12-17T08:08:50.573Z,99160.44
2022-12-17T08:11:36.041Z,99157.78
2022-12-17T08:14:21.472Z,99175.94
2022-12-17T08:17:07.312Z,99165.50
2022-12-17T08:19:52.593Z,99170.63
2022-12-17T08:22:38.053Z,99187.03
2022-12-17T08:25:23.724Z,99193.81
2022-12-17T08:28:33.835Z,99208.09
2022-12-17T08:31:20.708Z,99214.31
2022-12-17T08:34:08.083Z,99222.97
2022-12-17T08:36:54.339Z,99227.25
2022-12-17T08:39:39.904Z,99236.69
2022-12-17T08:42:25.585Z,99236.69
2022-12-17T08:45:11.218Z,99244.78
2022-12-17T08:48:02.056Z,99253.41
2022-12-17T08:50:49.165Z,99268.13
2022-12-17T08:53:35.178Z,99255.97
2022-12-17T08:56:20.850Z,99263.09
2022-12-17T08:59:06.406Z,99269.81
2022-12-17T09:01:52.357Z,99278.44
2022-12-17T09:04:37.465Z,99289.78
2022-12-17T09:07:23.064Z,99285.91
2022-12-17T09:10:08.588Z,99296.88
2022-12-17T09:12:54.184Z,99304.75
2022-12-17T09:15:39.576Z,99298.44
2022-12-17T09:18:24.954Z,99308.31
2022-12-17T09:21:12.355Z,99329.47
2022-12-17T09:23:57.976Z,99344.41
2022-12-17T09:26:43.364Z,99340.66
2022-12-17T09:29:28.881Z,99349.97
2022-12-17T09:32:14.276Z,99342.84
2022-12-17T09:34:59.792Z,99355.97
2022-12-17T09:37:45.325Z,99356.53
2022-12-17T09:40:41.925Z,99370.06
2022-12-17T09:44:02.945Z,99358.25
2022-12-17T09:47:20.918Z,99351.13
2022-12-17T09:50:06.404Z,99357.81
2022-12-17T09:52:55.655Z,99368.50
2022-12-17T09:55:48.853Z,99371.75
2022-12-17T09:58:45.509Z,99373.22
2022-12-17T10:01:39.716Z,99375.50
2022-12-17T10:04:33.276Z,99375.75
2022-12-17T10:07:20.095Z,99369.50
2022-12-17T10:10:09.564Z,99382.84
2022-12-17T10:12:55.804Z,99387.19
2022-12-17T10:15:41.243Z,99380.94
2022-12-17T10:18:30.289Z,99383.50
2022-12-17T10:21:23.367Z,99382.19
2022-12-17T10:24:10.896Z,99400.25
2022-12-17T10:27:07.715Z,99406.75
2022-12-17T10:29:53.325Z,99417.19
2022-12-17T10:32:42.722Z,99426.63
2022-12-17T10:35:45.853Z,99430.69
2022-12-17T10:38:43.085Z,99422.94
2022-12-17T10:42:01.429Z,99435.91
2022-12-17T10:44:56.908Z,99434.78
2022-12-17T10:47:45.694Z,99436.81
2022-12-17T10:50:35.128Z,99446.47
2022-12-17T10:53:22.614Z,99452.94
2022-12-17T10:56:12.704Z,99467.75
2022-12-17T10:59:11.165Z,99473.41
2022-12-17T11:01:59.803Z,99474.53
2022-12-17T11:04:47.593Z,99486.22
2022-12-17T11:07:45.125Z,99500.94
2022-12-17T11:10:35.716Z,99496.53
2022-12-17T11:13:25.054Z,99514.22
2022-12-17T11:16:13.364Z,99518.88
2022-12-17T11:18:58.598Z,99522.66
2022-12-17T11:21:47.499Z,99535.38
2022-12-17T11:24:42.533Z,99524.56
2022-12-17T11:27:34.854Z,99540.19
2022-12-17T11:30:20.373Z,99543.97
2022-12-17T11:33:43.966Z,99550.25
2022-12-17T11:36:56.054Z,99556.75
2022-12-17T11:40:11.633Z,99559.09
2022-12-17T11:43:03.992Z,99558.41
2022-12-17T11:46:15.274Z,99576.97
2022-12-17T11:49:29.485Z,99581.72
2022-12-17T11:52:30.113Z,99570.88
2022-12-17T11:55:43.134Z,99581.53
2022-12-17T11:58:40.775Z,99588.84
2022-12-17T12:01:45.172Z,99589.06
2022-12-17T12:05:24.525Z,99597.94
2022-12-17T12:08:42.235Z,99594.38
2022-12-17T12:11:51.485Z,99605.41
2022-12-17T12:15:12.002Z,99603.91
2022-12-17T12:18:05.835Z,99599.84
2022-12-17T12:20:53.896Z,99615.72
2022-12-17T12:23:48.840Z,99612.41
2022-12-17T12:26:39.654Z,99604.00
2022-12-17T12:30:06.340Z,99608.44
2022-12-17T12:33:09.761Z,99610.66
2022-12-17T12:35:56.905Z,99614.53
2022-12-17T12:38:49.582Z,99611.84
2022-12-17T12:41:53.445Z,99632.53
2022-12-17T12:44:59.474Z,99639.44
2022-12-17T12:48:11.764Z,99647.47
2022-12-17T12:51:19.554Z,99649.38
2022-12-17T12:54:18.527Z,99655.63
2022-12-17T12:57:04.086Z,99659.22
2022-12-17T12:59:54.184Z,99672.97
2022-12-17T13:02:39.815Z,99668.25
2022-12-17T13:05:35.735Z,99681.53
2022-12-17T13:08:20.045Z,99684.72
2022-12-17T13:10:47.667Z,99683.69
2022-12-17T13:13:36.954Z,99691.91
2022-12-17T13:16:34.672Z,99692.47
2022-12-17T13:19:32.504Z,99701.22
2022-12-17T13:22:24.110Z,99692.47
2022-12-17T13:24:54.530Z,99700.84
2022-12-17T13:27:36.384Z,99720.44
2022-12-17T13:30:24.347Z,99728.59
2022-12-17T13:33:08.584Z,99715.53
2022-12-17T13:35:53.765Z,99716.22
2022-12-17T13:38:42.244Z,99711.19
2022-12-17T13:41:11.326Z,99719.59
2022-12-17T13:43:48.273Z,99720.22
2022-12-17T13:46:20.189Z,99732.28
2022-12-17T13:48:57.626Z,99736.81
2022-12-17T13:51:27.696Z,99744.34
2022-12-17T13:54:00.016Z,99751.03
2022-12-17T13:56:29.484Z,99749.69
2022-12-17T13:59:00.005Z,99748.03
2022-12-17T14:01:30.665Z,99754.78
2022-12-17T14:04:06.997Z,99757.13
2022-12-17T14:06:38.340Z,99769.63
2022-12-17T14:09:06.384Z,99760.03
2022-12-17T14:11:52.364Z,99771.06
2022-12-17T14:14:34.814Z,99765.47
2022-12-17T14:17:02.237Z,99774.22
2022-12-17T14:19:31.444Z,99770.88
2022-12-17T14:21:59.157Z,99786.59
2022-12-17T14:24:29.593Z,99783.16
2022-12-17T14:27:00.965Z,99791.25
2022-12-17T14:29:30.745Z,99789.09
2022-12-17T14:32:00.328Z,99804.19
2022-12-17T14:34:27.567Z,99809.19
2022-12-17T14:37:01.148Z,99824.91
2022-12-17T14:39:30.726Z,99840.28
2022-12-17T14:42:29.941Z,99839.56
2022-12-17T14:45:03.714Z,99849.16
2022-12-17T14:47:35.577Z,99835.84
2022-12-17T14:50:10.664Z,99843.56
2022-12-17T14:52:57.893Z,99848.31
2022-12-17T14:55:27.796Z,99845.94
2022-12-17T14:58:13.922Z,99851.81
2022-12-17T15:00:43.985Z,99849.56
2022-12-17T15:03:23.832Z,99860.31
2022-12-17T15:06:03.402Z,99868.16
2022-12-17T15:08:42.203Z,99862.19
2022-12-17T15:11:12.456Z,99875.22
2022-12-17T15:13:39.304Z,99880.69
2022-12-17T15:16:06.509Z,99886.66
2022-12-17T15:18:33.601Z,99893.09
2022-12-17T15:21:02.037Z,99887.28
2022-12-17T15:23:29.312Z,99887.19
2022-12-17T15:25:56.243Z,99885.66
2022-12-17T15:28:26.890Z,99884.59
2022-12-17T15:30:53.859Z,99890.91
2022-12-17T15:33:20.689Z,99884.25
2022-12-17T15:35:47.570Z,99878.97
2022-12-17T15:38:14.510Z,99885.03
2022-12-17T15:40:41.395Z,99899.28
2022-12-17T15:43:12.089Z,99890.56
2022-12-17T15:45:47.132Z,99909.97
2022-12-17T15:48:16.256Z,99918.88
2022-12-17T15:50:43.255Z,99926.78
2022-12-17T15:53:10.631Z,99923.28
2022-12-17T15:55:38.575Z,99929.88
2022-12-17T15:58:06.834Z,99946.66
2022-12-17T16:00:34.304Z,99948.47
2022-12-17T16:03:01.203Z,99945.28
2022-12-17T16:05:28.303Z,99942.25
2022-12-17T16:07:59.238Z,99951.31
2022-12-17T16:10:26.235Z,99959.78
2022-12-17T16:12:53.045Z,99956.06
2022-12-17T16:15:19.864Z,99961.16
2022-12-17T16:17:46.675Z,99959.31
2022-12-17T16:20:13.576Z,99963.81
2022-12-17T16:22:40.543Z,99957.44
2022-12-17T16:25:07.775Z,99963.22
2022-12-17T16:27:34.764Z,99967.22
2022-12-17T16:30:01.931Z,99985.84
2022-12-17T16:32:34.557Z,99976.88
2022-12-17T16:35:04.942Z,99989.75
2022-12-17T16:37:31.906Z,100001.19
2022-12-17T16:40:00.387Z,99996.09
2022-12-17T16:42:27.984Z,100005.91
2022-12-17T16:44:54.794Z,100004.63
2022-12-17T16:47:21.598Z,100018.38
2022-12-17T16:49:50.784Z,100023.06
2022-12-17T16:52:17.669Z,100032.31
2022-12-17T16:54:44.435Z,100034.03
2022-12-17T16:57:11.275Z,100032.00
2022-12-17T16:59:38.065Z,100025.56
2022-12-17T17:02:05.066Z,100034.66
2022-12-17T17:04:31.996Z,100026.91
2022-12-17T17:06:58.880Z,100027.47
2022-12-17T17:09:26.173Z,100018.16
2022-12-17T17:11:56.245Z,100032.41
2022-12-17T17:14:24.134Z,100045.16
2022-12-17T17:16:51.794Z,100061.06
2022-12-17T17:19:19.796Z,100060.59
2022-12-17T17:21:54.315Z,100056.28
2022-12-17T17:24:26.754Z,100068.56
2022-12-17T17:26:55.337Z,100067.97
2022-12-17T17:29:22.578Z,100083.09
2022-12-17T17:34:40.031Z,100103.53
2022-12-17T17:37:07.026Z,100119.56
2022-12-17T17:39:34.510Z,100119.63
2022-12-17T17:42:01.725Z,100121.47
2022-12-17T17:44:28.567Z,100134.00
2022-12-17T17:46:55.562Z,100131.16
2022-12-17T17:49:22.486Z,100129.78
2022-12-17T17:52:08.820Z,100132.34
2022-12-17T17:54:36.527Z,100130.06
2022-12-17T17:57:03.443Z,100137.41
2022-12-17T17:59:33.594Z,100147.94
2022-12-17T18:02:01.658Z,100151.88
2022-12-17T18:04:28.726Z,100146.47
2022-12-17T18:07:24.251Z,100145.06
2022-12-17T18:09:42.553Z,100148.00
2022-12-17T18:12:27.798Z,100154.13
2022-12-17T18:15:13.751Z,100173.22
2022-12-17T18:17:41.535Z,100163.44
2022-12-17T18:20:09.881Z,100173.84
2022-12-17T18:22:36.955Z,100163.13
2022-12-17T18:25:04.680Z,100165.31
2022-12-17T18:27:31.538Z,100174.84
2022-12-17T18:29:58.334Z,100172.97
2022-12-17T18:32:25.135Z,100184.78
2022-12-17T18:34:52.054Z,100165.16
2022-12-17T18:37:18.911Z,100181.69
2022-12-17T18:39:45.704Z,100194.44
2022-12-17T18:42:31.228Z,100198.06
2022-12-17T18:44:58.016Z,100199.84
2022-12-17T18:47:25.651Z,100208.13
2022-12-17T18:49:52.671Z,100214.81
2022-12-17T18:52:19.615Z,100226.69
2022-12-17T18:54:46.525Z,100215.09
2022-12-17T18:57:13.649Z,100229.84
2022-12-17T18:59:41.293Z,100224.38
2022-12-17T19:02:12.857Z,100232.28
2022-12-17T19:04:40.367Z,100235.94
2022-12-17T19:07:07.566Z,100242.41
2022-12-17T19:09:35.918Z,100244.50
2022-12-17T19:12:04.932Z,100247.56
2022-12-17T19:14:32.134Z,100241.47
2022-12-17T19:16:59.409Z,100242.03
2022-12-17T19:19:26.928Z,100241.53
2022-12-17T19:21:55.356Z,100241.31
2022-12-17T19:24:23.304Z,100248.63
2022-12-17T19:26:51.122Z,100260.44
2022-12-17T19:29:20.184Z,100274.75
2022-12-17T19:31:47.289Z,100279.28
2022-12-17T19:34:17.305Z,100284.44
2022-12-17T19:36:44.897Z,100284.69
2022-12-17T19:39:13.814Z,100298.44
2022-12-17T19:41:40.764Z,100299.00
2022-12-17T19:44:11.648Z,100305.09
2022-12-17T19:46:38.504Z,100306.75
2022-12-17T19:49:05.646Z,100312.25
2022-12-17T19:51:33.606Z,100311.19
2022-12-17T19:54:08.157Z,100320.81
2022-12-17T19:56:35.968Z,100319.81
2022-12-17T19:59:07.286Z,100321.97
2022-12-17T20:01:37.300Z,100321.13
2022-12-17T20:04:05.288Z,100322.34
2022-12-17T20:06:34.747Z,100330.78
2022-12-17T20:09:03.775Z,100338.88
2022-12-17T20:11:33.609Z,100340.78
2022-12-17T20:14:18.326Z,100339.53
2022-12-17T20:16:51.109Z,100351.81
2022-12-17T20:19:26.040Z,100342.91
2022-12-17T20:21:53.963Z,100353.81
2022-12-17T20:24:24.655Z,100355.31
2022-12-17T20:26:56.443Z,100346.41
2022-12-17T20:29:25.481Z,100352.94
2022-12-17T20:31:54.679Z,100366.28
2022-12-17T20:34:25.095Z,100361.59
2022-12-17T20:36:52.536Z,100374.56
2022-12-17T20:39:25.995Z,100364.50
2022-12-17T20:41:53.892Z,100372.88
2022-12-17T20:44:20.734Z,100382.03
2022-12-17T20:46:47.536Z,100386.06
2022-12-17T20:49:14.971Z,100398.53
2022-12-17T20:51:42.397Z,100398.91
2022-12-17T20:54:10.687Z,100394.97
2022-12-17T20:56:39.647Z,100416.16
2022-12-17T20:59:08.746Z,100408.59
2022-12-17T21:01:36.984Z,100412.84
2022-12-17T21:04:06.487Z,100412.31
2022-12-17T21:06:39.077Z,100413.34
2022-12-17T21:09:07.041Z,100421.94
2022-12-17T21:11:35.386Z,100416.63
2022-12-17T21:14:10.236Z,100418.44
2022-12-17T21:16:38.677Z,100420.13
2022-12-17T21:19:06.745Z,100425.09
2022-12-17T21:21:36.420Z,100434.13
2022-12-17T21:24:05.159Z,100431.56
2022-12-17T21:26:35.085Z,100427.28
2022-12-17T21:29:04.176Z,100427.56
2022-12-17T21:31:38.384Z,100425.41
2022-12-17T21:34:08.036Z,100437.53
2022-12-17T21:36:35.736Z,100432.94
2022-12-17T21:39:08.890Z,100434.69
2022-12-17T21:41:42.328Z,100427.78
2022-12-17T21:44:13.892Z,100435.00
2022-12-17T21:46:42.643Z,100429.13
2022-12-17T21:49:10.205Z,100428.09
2022-12-17T21:51:37.309Z,100429.38
2022-12-17T21:54:08.389Z,100437.00
2022-12-17T21:56:35.918Z,100434.63
2022-12-17T21:59:02.812Z,100445.13
2022-12-17T22:01:33.264Z,100441.19
2022-12-17T22:04:03.636Z,100441.19
2022-12-17T22:06:46.366Z,100454.66
2022-12-17T22:09:25.901Z,100451.28
2022-12-17T22:12:22.605Z,100455.03
2022-12-17T22:14:49.523Z,100444.66
2022-12-17T22:17:16.486Z,100452.91
2022-12-17T22:19:43.385Z,100466.72
2022-12-17T22:22:10.165Z,100464.16
2022-12-17T22:24:36.966Z,100466.81
2022-12-17T22:27:04.255Z,100467.81
2022-12-17T22:29:55.528Z,100472.22
2022-12-17T22:34:05.435Z,100478.69
2022-12-17T22:38:19.299Z,100477.63
2022-12-17T22:42:21.574Z,100470.63
2022-12-17T22:44:41.009Z,100473.63
2022-12-17T22:45:10.195Z,100470.44
2022-12-17T22:47:38.127Z,100478.97
2022-12-17T22:50:05.314Z,100480.47
2022-12-17T22:52:32.800Z,100492.50
2022-12-17T22:55:00.118Z,100487.81
2022-12-17T22:57:36.110Z,100495.78
2022-12-17T23:00:17.654Z,100474.06
2022-12-17T23:02:44.588Z,100492.44
2022-12-17T23:05:11.467Z,100499.75
2022-12-17T23:07:38.344Z,100495.19
2022-12-17T23:10:06.353Z,100506.03
2022-12-17T23:12:51.366Z,100488.72
2022-12-17T23:15:24.285Z,100517.84
2022-12-17T23:17:52.934Z,100511.47
2022-12-17T23:20:20.267Z,100520.13
2022-12-17T23:22:47.095Z,100526.34
2022-12-17T23:25:14.472Z,100527.38
2022-12-17T23:27:45.615Z,100537.69
2022-12-17T23:30:14.085Z,100524.66
2022-12-17T23:32:41.306Z,100533.34
2022-12-17T23:35:09.336Z,100538.13
2022-12-17T23:37:39.788Z,100541.09
2022-12-17T23:40:12.123Z,100536.78
2022-12-17T23:42:39.578Z,100557.56
2022-12-17T23:45:07.702Z,100556.16
2022-12-17T23:47:34.745Z,100558.50
2022-12-17T23:50:01.616Z,100564.25
2022-12-17T23:52:28.623Z,100567.44
2022-12-17T23:54:55.605Z,100569.41
2022-12-17T23:57:22.443Z,100567.16
2022-12-17T23:59:49.266Z,100564.88
